createdAt,value
2022-11-23T00:01:36.608Z,8.80
2022-11-23T00:04:07.579Z,8.90
2022-11-23T00:06:36.550Z,8.90
2022-11-23T00:09:05.275Z,8.90
2022-11-23T00:11:36.430Z,8.90
2022-11-23T00:14:04.972Z,8.90
2022-11-23T00:16:33.576Z,8.90
2022-11-23T00:19:02.903Z,8.90
2022-11-23T00:21:32.713Z,8.90
2022-11-23T00:24:01.335Z,8.90
2022-11-23T00:26:29.774Z,8.90
2022-11-23T00:28:59.560Z,8.90
2022-11-23T00:31:29.186Z,8.90
2022-11-23T00:33:58.601Z,9.00
2022-11-23T00:36:28.435Z,8.90
2022-11-23T00:38:57.936Z,9.00
2022-11-23T00:41:28.349Z,9.00
2022-11-23T00:43:56.903Z,9.00
2022-11-23T00:46:28.664Z,9.00
2022-11-23T00:48:58.457Z,9.00
2022-11-23T00:51:29.227Z,9.00
2022-11-23T00:53:58.172Z,9.00
2022-11-23T00:56:27.829Z,9.00
2022-11-23T00:58:58.245Z,9.00
2022-11-23T01:01:30.993Z,9.00
2022-11-23T01:04:00.356Z,9.00
2022-11-23T01:06:32.735Z,9.00
2022-11-23T01:09:03.472Z,9.00
2022-11-23T01:11:33.425Z,9.00
2022-11-23T01:14:02.785Z,9.00
2022-11-23T01:16:34.576Z,9.10
2022-11-23T01:19:05.516Z,9.00
2022-11-23T01:21:35.063Z,9.00
2022-11-23T01:24:06.279Z,9.10
2022-11-23T01:26:35.153Z,9.00
2022-11-23T01:29:03.639Z,9.10
2022-11-23T01:31:33.378Z,9.10
2022-11-23T01:34:03.330Z,9.10
2022-11-23T01:36:34.163Z,9.10
2022-11-23T01:39:03.650Z,9.10
2022-11-23T01:41:34.629Z,9.10
2022-11-23T01:44:18.236Z,9.10
2022-11-23T01:46:48.600Z,9.10
2022-11-23T01:49:17.266Z,9.00
2022-11-23T01:51:49.550Z,9.20
2022-11-23T01:54:22.752Z,9.00
2022-11-23T01:56:56.336Z,9.00
2022-11-23T01:59:26.880Z,8.90
2022-11-23T02:01:57.294Z,9.00
2022-11-23T02:04:30.755Z,9.00
2022-11-23T02:07:02.094Z,9.00
2022-11-23T02:09:33.014Z,8.90
2022-11-23T02:12:01.843Z,8.90
2022-11-23T02:14:30.948Z,8.90
2022-11-23T02:17:01.247Z,8.90
2022-11-23T02:19:41.340Z,8.90
2022-11-23T02:22:15.010Z,8.80
2022-11-23T02:24:50.166Z,8.80
2022-11-23T02:27:21.656Z,8.80
2022-11-23T02:29:53.669Z,8.80
2022-11-23T02:32:24.980Z,8.80
2022-11-23T02:34:57.499Z,8.80
2022-11-23T02:37:26.591Z,8.80
2022-11-23T02:39:58.049Z,8.80
2022-11-23T02:42:29.802Z,8.80
2022-11-23T02:45:06.015Z,8.80
2022-11-23T02:47:34.468Z,8.80
2022-11-23T02:50:02.901Z,8.80
2022-11-23T02:52:31.347Z,8.80
2022-11-23T02:54:59.968Z,8.80
2022-11-23T02:57:29.778Z,8.80
2022-11-23T02:59:58.158Z,8.80
2022-11-23T03:02:26.591Z,8.80
2022-11-23T03:04:55.630Z,8.80
2022-11-23T03:07:24.113Z,8.80
2022-11-23T03:09:52.591Z,8.70
2022-11-23T03:12:21.693Z,8.70
2022-11-23T03:14:51.506Z,8.70
2022-11-23T03:17:20.155Z,8.70
2022-11-23T03:19:48.787Z,8.70
2022-11-23T03:22:17.304Z,8.90
2022-11-23T03:24:45.764Z,8.70
2022-11-23T03:27:17.709Z,8.70
2022-11-23T03:29:47.306Z,8.70
2022-11-23T03:32:21.962Z,8.70
2022-11-23T03:34:54.458Z,8.70
2022-11-23T03:37:24.290Z,8.70
2022-11-23T03:39:53.301Z,8.70
2022-11-23T03:42:41.488Z,8.70
2022-11-23T03:45:11.076Z,8.70
2022-11-23T03:47:41.204Z,8.70
2022-11-23T03:50:10.636Z,8.70
2022-11-23T03:52:39.733Z,8.70
2022-11-23T03:55:09.107Z,8.70
2022-11-23T03:57:37.800Z,8.60
2022-11-23T04:00:09.450Z,8.60
2022-11-23T04:02:43.089Z,8.60
2022-11-23T04:05:31.441Z,8.60
2022-11-23T04:08:24.268Z,8.70
2022-11-23T04:10:57.861Z,8.60
2022-11-23T04:13:36.519Z,8.70
2022-11-23T04:16:07.221Z,8.70
2022-11-23T04:18:37.281Z,8.70
2022-11-23T04:21:06.720Z,8.70
2022-11-23T04:23:35.314Z,8.70
2022-11-23T04:26:06.126Z,8.70
2022-11-23T04:28:35.218Z,8.70
2022-11-23T04:31:04.839Z,8.90
2022-11-23T04:33:43.966Z,8.70
2022-11-23T04:36:12.495Z,8.70
2022-11-23T04:38:41.156Z,8.60
2022-11-23T04:41:10.087Z,8.60
2022-11-23T04:43:40.867Z,8.50
2022-11-23T04:46:10.598Z,8.40
2022-11-23T04:48:39.043Z,8.40
2022-11-23T04:51:09.077Z,8.30
2022-11-23T04:53:40.176Z,8.30
2022-11-23T04:56:08.879Z,8.20
2022-11-23T04:58:40.578Z,8.20
2022-11-23T05:01:09.476Z,8.20
2022-11-23T05:03:48.817Z,8.20
2022-11-23T05:06:18.675Z,8.20
2022-11-23T05:08:47.973Z,8.10
2022-11-23T05:11:43.868Z,8.10
2022-11-23T05:14:12.466Z,8.20
2022-11-23T05:16:41.550Z,8.00
2022-11-23T05:19:10.638Z,8.00
2022-11-23T05:21:40.507Z,8.00
2022-11-23T05:24:09.135Z,7.90
2022-11-23T05:26:42.550Z,8.00
2022-11-23T05:29:10.977Z,7.90
2022-11-23T05:31:39.755Z,8.00
2022-11-23T05:34:08.176Z,8.00
2022-11-23T05:36:46.951Z,8.10
2022-11-23T05:39:16.726Z,8.10
2022-11-23T05:41:46.001Z,8.20
2022-11-23T05:44:31.594Z,8.20
2022-11-23T05:47:00.999Z,8.30
2022-11-23T05:49:33.329Z,8.40
2022-11-23T05:52:05.124Z,8.40
2022-11-23T05:54:35.438Z,8.50
2022-11-23T05:57:09.444Z,8.50
2022-11-23T05:59:40.582Z,8.50
2022-11-23T06:02:12.234Z,8.50
2022-11-23T06:04:40.797Z,8.60
2022-11-23T06:07:14.335Z,8.60
2022-11-23T06:10:08.418Z,8.60
2022-11-23T06:12:40.669Z,8.60
2022-11-23T06:15:14.286Z,8.60
2022-11-23T06:17:42.949Z,8.60
2022-11-23T06:20:16.832Z,8.60
2022-11-23T06:22:54.944Z,8.70
2022-11-23T06:25:25.582Z,8.70
2022-11-23T06:28:11.511Z,8.60
2022-11-23T06:30:46.422Z,8.60
2022-11-23T06:33:15.800Z,8.60
2022-11-23T06:35:56.935Z,8.60
2022-11-23T06:38:30.098Z,8.60
2022-11-23T06:41:05.908Z,8.60
2022-11-23T06:43:34.488Z,8.60
2022-11-23T06:46:05.338Z,8.60
2022-11-23T06:48:35.634Z,8.60
2022-11-23T06:51:05.466Z,8.60
2022-11-23T06:53:35.277Z,8.60
2022-11-23T06:56:07.962Z,8.50
2022-11-23T06:58:37.872Z,8.50
2022-11-23T07:01:11.854Z,8.40
2022-11-23T07:03:49.580Z,8.40
2022-11-23T07:06:30.317Z,8.30
2022-11-23T07:09:03.668Z,8.30
2022-11-23T07:11:51.191Z,8.30
2022-11-23T07:14:20.154Z,8.20
2022-11-23T07:16:51.501Z,8.20
2022-11-23T07:19:20.804Z,8.10
2022-11-23T07:21:51.115Z,8.10
2022-11-23T07:24:21.056Z,8.00
2022-11-23T07:26:49.528Z,7.90
2022-11-23T07:29:18.014Z,8.00
2022-11-23T07:31:47.255Z,7.90
2022-11-23T07:34:16.383Z,7.90
2022-11-23T07:36:45.553Z,8.00
2022-11-23T07:39:14.361Z,8.00
2022-11-23T07:41:44.248Z,8.00
2022-11-23T07:44:22.730Z,8.10
2022-11-23T07:46:54.339Z,8.10
2022-11-23T07:49:22.733Z,8.20
2022-11-23T07:51:51.158Z,8.20
2022-11-23T07:54:23.646Z,8.30
2022-11-23T07:56:53.722Z,8.30
2022-11-23T07:59:22.128Z,8.30
2022-11-23T08:01:54.316Z,8.40
2022-11-23T08:04:26.842Z,8.40
2022-11-23T08:06:55.414Z,8.50
2022-11-23T08:09:24.108Z,8.50
2022-11-23T08:11:54.074Z,8.60
2022-11-23T08:14:23.762Z,8.60
2022-11-23T08:16:53.045Z,8.60
2022-11-23T08:19:21.441Z,8.60
2022-11-23T08:21:49.887Z,8.70
2022-11-23T08:24:18.375Z,8.70
2022-11-23T08:26:46.829Z,8.70
2022-11-23T08:29:16.883Z,8.70
2022-11-23T08:31:45.363Z,8.80
2022-11-23T08:34:14.102Z,8.80
2022-11-23T08:36:42.556Z,8.90
2022-11-23T08:39:11.382Z,8.90
2022-11-23T08:41:40.009Z,9.00
2022-11-23T08:44:10.968Z,9.10
2022-11-23T08:46:40.904Z,9.10
2022-11-23T08:49:09.350Z,9.20
2022-11-23T08:51:37.768Z,9.20
2022-11-23T08:54:06.223Z,9.30
2022-11-23T08:56:34.670Z,9.40
2022-11-23T08:59:03.196Z,9.40
2022-11-23T09:01:31.706Z,9.40
2022-11-23T09:04:01.954Z,9.40
2022-11-23T09:06:30.351Z,9.40
2022-11-23T09:08:58.820Z,9.40
2022-11-23T09:11:27.426Z,9.40
2022-11-23T09:13:55.997Z,9.40
2022-11-23T09:16:24.447Z,9.40
2022-11-23T09:18:56.907Z,9.50
2022-11-23T09:21:30.754Z,9.50
2022-11-23T09:23:59.271Z,9.60
2022-11-23T09:26:27.715Z,9.70
2022-11-23T09:28:56.161Z,9.70
2022-11-23T09:31:26.809Z,9.70
2022-11-23T09:33:55.337Z,9.70
2022-11-23T09:36:24.105Z,9.80
2022-11-23T09:38:57.032Z,9.80
2022-11-23T09:41:52.982Z,9.80
2022-11-23T09:44:28.681Z,9.70
2022-11-23T09:47:12.270Z,9.60
2022-11-23T09:49:51.047Z,9.60
2022-11-23T09:52:22.158Z,9.50
2022-11-23T09:54:56.534Z,9.40
2022-11-23T09:57:31.663Z,9.40
2022-11-23T10:00:02.989Z,9.30
2022-11-23T10:02:37.847Z,9.30
2022-11-23T10:05:08.127Z,9.30
2022-11-23T10:07:48.221Z,9.20
2022-11-23T10:10:33.270Z,9.10
2022-11-23T10:13:09.806Z,9.10
2022-11-23T10:15:46.666Z,9.20
2022-11-23T10:18:29.136Z,9.00
2022-11-23T10:21:04.966Z,9.10
2022-11-23T10:23:53.574Z,9.00
2022-11-23T10:26:29.078Z,9.00
2022-11-23T10:29:00.755Z,9.00
2022-11-23T10:31:31.346Z,9.00
2022-11-23T10:34:05.480Z,9.10
2022-11-23T10:36:36.502Z,9.10
2022-11-23T10:39:16.106Z,9.10
2022-11-23T10:41:47.343Z,9.10
2022-11-23T10:44:31.362Z,9.10
2022-11-23T10:47:00.524Z,9.10
2022-11-23T10:49:30.759Z,9.10
2022-11-23T10:52:00.474Z,9.20
2022-11-23T10:54:32.774Z,9.20
2022-11-23T10:57:20.958Z,9.30
2022-11-23T11:00:00.014Z,9.30
2022-11-23T11:02:29.155Z,9.40
2022-11-23T11:05:35.482Z,9.50
2022-11-23T11:08:15.973Z,9.50
2022-11-23T11:10:49.934Z,9.60
2022-11-23T11:13:29.824Z,9.60
2022-11-23T11:16:00.722Z,9.70
2022-11-23T11:18:32.882Z,9.70
2022-11-23T11:21:04.978Z,9.80
2022-11-23T11:23:34.850Z,9.90
2022-11-23T11:26:18.030Z,10.00
2022-11-23T11:28:50.392Z,10.10
2022-11-23T11:31:43.285Z,10.20
2022-11-23T11:34:23.073Z,10.20
2022-11-23T11:36:58.710Z,10.30
2022-11-23T11:39:33.360Z,10.30
2022-11-23T11:42:05.926Z,10.40
2022-11-23T11:44:40.007Z,10.40
2022-11-23T11:47:29.089Z,10.40
2022-11-23T11:50:01.844Z,10.60
2022-11-23T11:52:36.670Z,10.70
2022-11-23T11:55:12.278Z,10.70
2022-11-23T11:57:46.965Z,10.70
2022-11-23T12:00:19.797Z,10.70
2022-11-23T12:02:56.725Z,10.60
2022-11-23T12:05:27.992Z,10.50
2022-11-23T12:08:04.143Z,10.40
2022-11-23T12:10:40.598Z,10.30
2022-11-23T12:13:14.246Z,10.30
2022-11-23T12:15:50.136Z,10.30
2022-11-23T12:19:01.106Z,10.20
2022-11-23T12:22:11.261Z,10.20
2022-11-23T12:25:10.905Z,10.20
2022-11-23T12:27:49.862Z,10.30
2022-11-23T12:30:25.640Z,10.30
2022-11-23T12:33:12.299Z,10.30
2022-11-23T12:35:55.094Z,10.30
2022-11-23T12:38:32.102Z,10.40
2022-11-23T12:41:27.272Z,10.40
2022-11-23T12:44:14.260Z,10.40
2022-11-23T12:46:50.509Z,10.40
2022-11-23T12:49:38.797Z,10.50
2022-11-23T12:52:29.854Z,10.50
2022-11-23T12:55:19.246Z,10.50
2022-11-23T12:57:54.139Z,10.50
2022-11-23T13:00:23.911Z,10.50
2022-11-23T13:03:48.238Z,10.50
2022-11-23T13:06:59.326Z,10.50
2022-11-23T13:09:56.370Z,10.60
2022-11-23T13:12:42.522Z,10.60
2022-11-23T13:15:27.252Z,10.50
2022-11-23T13:18:01.266Z,10.50
2022-11-23T13:20:44.893Z,10.50
2022-11-23T13:23:15.002Z,10.50
2022-11-23T13:25:43.466Z,10.50
2022-11-23T13:28:30.810Z,10.50
2022-11-23T13:31:35.981Z,10.50
2022-11-23T13:34:28.043Z,10.60
2022-11-23T13:37:18.340Z,10.60
2022-11-23T13:42:40.014Z,10.60
2022-11-23T13:45:30.694Z,10.60
2022-11-23T13:48:34.255Z,10.60
2022-11-23T13:51:02.295Z,10.70
2022-11-23T13:53:34.137Z,10.60
2022-11-23T13:56:24.303Z,10.60
2022-11-23T13:58:56.086Z,10.50
2022-11-23T14:02:16.530Z,10.40
2022-11-23T14:04:46.805Z,10.20
2022-11-23T14:07:18.916Z,10.10
2022-11-23T14:09:52.940Z,9.90
2022-11-23T14:12:33.470Z,9.70
2022-11-23T14:15:12.529Z,9.50
2022-11-23T14:18:08.482Z,9.30
2022-11-23T14:21:06.807Z,9.10
2022-11-23T14:24:14.156Z,9.00
2022-11-23T14:26:52.954Z,8.90
2022-11-23T14:29:30.075Z,8.90
2022-11-23T14:32:24.767Z,8.80
2022-11-23T14:35:05.607Z,8.80
2022-11-23T14:37:43.912Z,8.70
2022-11-23T14:40:20.257Z,8.70
2022-11-23T14:42:54.190Z,8.70
2022-11-23T14:45:25.652Z,8.70
2022-11-23T14:47:55.498Z,8.70
2022-11-23T14:50:26.741Z,8.60
2022-11-23T14:52:57.546Z,8.70
2022-11-23T14:55:28.166Z,8.60
2022-11-23T14:58:00.592Z,8.70
2022-11-23T15:00:36.479Z,8.70
2022-11-23T15:03:48.288Z,8.60
2022-11-23T15:06:09.975Z,8.60
2022-11-23T15:08:46.754Z,8.60
2022-11-23T15:11:21.134Z,8.60
2022-11-23T15:13:51.455Z,8.60
2022-11-23T15:16:22.280Z,8.50
2022-11-23T15:18:52.975Z,8.50
2022-11-23T15:21:27.716Z,8.50
2022-11-23T15:23:59.976Z,8.50
2022-11-23T15:29:33.076Z,8.40
2022-11-23T15:34:54.718Z,8.40
2022-11-23T15:37:23.850Z,8.40
2022-11-23T15:39:53.318Z,8.40
2022-11-23T15:42:24.722Z,8.40
2022-11-23T15:44:56.516Z,8.40
2022-11-23T15:47:28.274Z,8.40
2022-11-23T15:50:02.411Z,8.40
2022-11-23T15:52:35.529Z,8.40
2022-11-23T15:55:09.655Z,8.30
2022-11-23T15:57:41.022Z,8.40
2022-11-23T16:00:22.185Z,8.30
2022-11-23T16:02:50.971Z,8.40
2022-11-23T16:05:23.576Z,8.40
2022-11-23T16:07:54.458Z,8.40
2022-11-23T16:10:25.853Z,8.40
2022-11-23T16:12:55.658Z,8.40
2022-11-23T16:15:41.519Z,8.40
2022-11-23T16:18:23.173Z,8.40
2022-11-23T16:20:56.295Z,8.40
2022-11-23T16:23:27.985Z,8.40
2022-11-23T16:25:59.149Z,8.40
2022-11-23T16:28:32.330Z,8.40
2022-11-23T16:31:01.959Z,8.40
2022-11-23T16:33:31.219Z,8.40
2022-11-23T16:36:01.017Z,8.40
2022-11-23T16:38:29.606Z,8.40
2022-11-23T16:40:58.041Z,8.50
2022-11-23T16:43:26.562Z,8.50
2022-11-23T16:45:55.771Z,8.50
2022-11-23T16:48:41.638Z,8.50
2022-11-23T16:51:14.524Z,8.50
2022-11-23T16:54:11.905Z,8.60
2022-11-23T16:56:33.090Z,8.60
2022-11-23T16:59:01.766Z,8.60
2022-11-23T17:01:32.496Z,8.60
2022-11-23T17:04:01.249Z,8.60
2022-11-23T17:06:31.116Z,8.60
2022-11-23T17:09:06.414Z,8.60
2022-11-23T17:11:39.572Z,8.60
2022-11-23T17:14:08.523Z,8.60
2022-11-23T17:16:37.111Z,8.60
2022-11-23T17:19:07.036Z,8.60
2022-11-23T17:21:36.808Z,8.60
2022-11-23T17:24:05.885Z,8.60
2022-11-23T17:26:37.218Z,8.60
2022-11-23T17:29:08.140Z,8.70
2022-11-23T17:31:36.575Z,8.70
2022-11-23T17:34:04.979Z,8.60
2022-11-23T17:36:33.495Z,8.70
2022-11-23T17:39:03.380Z,8.70
2022-11-23T17:41:31.858Z,8.70
2022-11-23T17:44:00.304Z,8.70
2022-11-23T17:46:31.556Z,8.70
2022-11-23T17:49:02.328Z,8.80
2022-11-23T17:51:31.222Z,8.70
2022-11-23T17:53:59.664Z,8.70
2022-11-23T17:56:29.449Z,8.70
2022-11-23T17:58:58.016Z,8.70
2022-11-23T18:01:26.479Z,8.70
2022-11-23T18:03:56.289Z,8.70
2022-11-23T18:06:25.647Z,8.70
2022-11-23T18:08:54.256Z,8.70
2022-11-23T18:11:23.217Z,8.70
2022-11-23T18:13:53.440Z,8.70
2022-11-23T18:16:23.220Z,8.60
2022-11-23T18:18:52.037Z,8.70
2022-11-23T18:21:20.537Z,8.70
2022-11-23T18:23:48.944Z,8.60
2022-11-23T18:26:20.802Z,8.70
2022-11-23T18:28:50.512Z,8.70
2022-11-23T18:31:20.870Z,8.60
2022-11-23T18:33:49.356Z,8.50
2022-11-23T18:36:17.940Z,8.50
2022-11-23T18:38:46.746Z,8.50
2022-11-23T18:41:17.088Z,8.50
2022-11-23T18:43:45.979Z,8.40
2022-11-23T18:46:19.040Z,8.40
2022-11-23T18:48:50.360Z,8.30
2022-11-23T18:51:19.796Z,8.30
2022-11-23T18:53:49.900Z,8.30
2022-11-23T18:56:19.254Z,8.20
2022-11-23T18:58:47.956Z,8.20
2022-11-23T19:01:18.677Z,8.20
2022-11-23T19:03:50.573Z,8.10
2022-11-23T19:06:21.014Z,8.10
2022-11-23T19:08:50.807Z,8.00
2022-11-23T19:11:21.161Z,8.00
2022-11-23T19:13:53.197Z,8.00
2022-11-23T19:16:23.857Z,8.00
2022-11-23T19:18:56.967Z,7.90
2022-11-23T19:21:26.946Z,7.90
2022-11-23T19:23:57.095Z,7.80
2022-11-23T19:26:26.663Z,7.80
2022-11-23T19:28:55.871Z,7.80
2022-11-23T19:31:26.609Z,7.80
2022-11-23T19:34:00.567Z,7.80
2022-11-23T19:36:30.942Z,7.90
2022-11-23T19:39:00.542Z,7.70
2022-11-23T19:41:30.652Z,7.70
2022-11-23T19:44:00.564Z,7.60
2022-11-23T19:46:29.903Z,7.60
2022-11-23T19:49:00.108Z,7.60
2022-11-23T19:51:29.339Z,7.60
2022-11-23T19:53:58.186Z,7.60
2022-11-23T19:56:28.962Z,7.60
2022-11-23T19:58:58.987Z,7.60
2022-11-23T20:01:29.379Z,7.50
2022-11-23T20:04:07.915Z,7.60
2022-11-23T20:06:38.978Z,7.50
2022-11-23T20:09:09.502Z,7.50
2022-11-23T20:11:40.301Z,7.50
2022-11-23T20:14:11.246Z,7.70
2022-11-23T20:16:40.340Z,7.50
2022-11-23T20:19:10.572Z,7.70
2022-11-23T20:21:39.465Z,7.50
2022-11-23T20:24:11.598Z,7.50
2022-11-23T20:26:41.844Z,7.50
2022-11-23T20:29:10.852Z,7.50
2022-11-23T20:31:39.680Z,7.50
2022-11-23T20:34:10.632Z,7.50
2022-11-23T20:36:43.205Z,7.50
2022-11-23T20:39:12.437Z,7.50
2022-11-23T20:41:40.931Z,7.40
2022-11-23T20:44:12.803Z,7.40
2022-11-23T20:49:30.938Z,7.40
2022-11-23T20:52:01.675Z,7.30
2022-11-23T20:54:30.215Z,7.30
2022-11-23T20:57:00.108Z,7.40
2022-11-23T20:59:29.158Z,7.30
2022-11-23T21:01:57.727Z,7.30
2022-11-23T21:04:26.764Z,7.30
2022-11-23T21:06:55.579Z,7.30
2022-11-23T21:09:25.338Z,7.30
2022-11-23T21:12:11.189Z,7.30
2022-11-23T21:14:39.725Z,7.50
2022-11-23T21:17:08.160Z,7.40
2022-11-23T21:19:39.160Z,7.40
2022-11-23T21:22:09.570Z,7.50
2022-11-23T21:24:39.599Z,7.50
2022-11-23T21:27:11.898Z,7.50
2022-11-23T21:29:40.756Z,7.50
2022-11-23T21:32:09.185Z,7.50
2022-11-23T21:34:37.854Z,7.50
2022-11-23T21:37:06.502Z,7.50
2022-11-23T21:39:34.946Z,7.50
2022-11-23T21:42:04.776Z,7.50
2022-11-23T21:44:33.608Z,7.50
2022-11-23T21:47:02.211Z,7.50
2022-11-23T21:49:30.811Z,7.50
2022-11-23T21:51:59.277Z,7.50
2022-11-23T21:54:27.817Z,7.50
2022-11-23T21:56:56.316Z,7.50
2022-11-23T21:59:26.121Z,7.50
2022-11-23T22:01:58.563Z,7.50
2022-11-23T22:04:27.446Z,7.50
2022-11-23T22:06:55.895Z,7.50
2022-11-23T22:09:24.442Z,7.60
2022-11-23T22:11:52.907Z,7.50
2022-11-23T22:14:22.008Z,7.50
2022-11-23T22:16:53.672Z,7.50
2022-11-23T22:19:22.103Z,7.50
2022-11-23T22:21:50.565Z,7.50
2022-11-23T22:24:21.098Z,7.50
2022-11-23T22:26:49.793Z,7.50
2022-11-23T22:29:18.274Z,7.40
2022-11-23T22:31:46.877Z,7.60
2022-11-23T22:34:16.800Z,7.60
2022-11-23T22:36:45.188Z,7.50
2022-11-23T22:39:13.606Z,7.50
2022-11-23T22:41:42.119Z,7.50
2022-11-23T22:44:11.599Z,7.50
2022-11-23T22:46:40.682Z,7.50
2022-11-23T22:49:09.083Z,7.60
2022-11-23T22:51:38.893Z,7.60
2022-11-23T22:54:07.357Z,7.70
2022-11-23T22:56:35.763Z,7.70
2022-11-23T22:59:04.475Z,7.80
2022-11-23T23:01:33.138Z,7.80
2022-11-23T23:04:02.939Z,7.90
2022-11-23T23:06:33.980Z,8.00
2022-11-23T23:09:06.450Z,8.00
2022-11-23T23:11:36.326Z,8.00
2022-11-23T23:14:05.158Z,8.10
2022-11-23T23:16:33.739Z,8.00
2022-11-23T23:19:03.390Z,8.00
2022-11-23T23:21:31.824Z,8.00
2022-11-23T23:24:01.399Z,8.00
2022-11-23T23:26:31.350Z,8.00
2022-11-23T23:29:00.972Z,8.00
2022-11-23T23:31:30.663Z,7.90
2022-11-23T23:34:00.640Z,7.90
2022-11-23T23:36:29.667Z,7.90
2022-11-23T23:38:58.569Z,7.90
2022-11-23T23:41:27.044Z,7.90
2022-11-23T23:43:56.970Z,7.90
2022-11-23T23:46:25.702Z,7.90
2022-11-23T23:48:54.106Z,7.90
2022-11-23T23:51:24.227Z,7.90
2022-11-23T23:53:53.297Z,8.00
2022-11-23T23:56:23.413Z,7.90
2022-11-23T23:58:52.173Z,8.00
